sensor_id;sensor_type;location;lat;lon;timestamp;P1;durP1;ratioP1;P2;durP2;ratioP2
11303;SDS011;5707;49.588;12.148;2024-02-21T00:00:14;5.18;;;2.28;;
11303;SDS011;5707;49.588;12.148;2024-02-21T00:02:40;3.80;;;2.08;;
11303;SDS011;5707;49.588;12.148;2024-02-21T00:05:06;6.13;;;2.85;;
11303;SDS011;5707;49.588;12.148;2024-02-21T00:07:32;5.05;;;2.63;;
11303;SDS011;5707;49.588;12.148;2024-02-21T00:09:57;6.03;;;2.30;;
11303;SDS011;5707;49.588;12.148;2024-02-21T00:12:23;4.70;;;2.15;;
11303;SDS011;5707;49.588;12.148;2024-02-21T00:14:49;3.92;;;2.15;;
11303;SDS011;5707;49.588;12.148;2024-02-21T00:17:14;7.60;;;2.40;;
11303;SDS011;5707;49.588;12.148;2024-02-21T00:19:40;6.32;;;2.28;;
11303;SDS011;5707;49.588;12.148;2024-02-21T00:22:06;5.28;;;1.98;;
11303;SDS011;5707;49.588;12.148;2024-02-21T00:24:31;6.75;;;2.25;;
11303;SDS011;5707;49.588;12.148;2024-02-21T00:26:57;7.20;;;2.03;;
11303;SDS011;5707;49.588;12.148;2024-02-21T00:29:22;6.53;;;2.47;;
11303;SDS011;5707;49.588;12.148;2024-02-21T00:31:48;5.13;;;2.13;;
11303;SDS011;5707;49.588;12.148;2024-02-21T00:34:14;5.68;;;2.65;;
11303;SDS011;5707;49.588;12.148;2024-02-21T00:36:40;3.45;;;2.13;;
11303;SDS011;5707;49.588;12.148;2024-02-21T00:39:05;3.95;;;2.13;;
11303;SDS011;5707;49.588;12.148;2024-02-21T00:41:31;6.75;;;2.35;;
11303;SDS011;5707;49.588;12.148;2024-02-21T00:43:57;5.32;;;2.40;;
11303;SDS011;5707;49.588;12.148;2024-02-21T00:46:22;4.57;;;2.47;;
11303;SDS011;5707;49.588;12.148;2024-02-21T00:48:48;6.60;;;2.40;;
11303;SDS011;5707;49.588;12.148;2024-02-21T00:51:14;5.95;;;2.30;;
11303;SDS011;5707;49.588;12.148;2024-02-21T00:53:40;5.38;;;2.30;;
11303;SDS011;5707;49.588;12.148;2024-02-21T00:56:06;4.70;;;2.10;;
11303;SDS011;5707;49.588;12.148;2024-02-21T00:58:32;6.93;;;2.38;;
11303;SDS011;5707;49.588;12.148;2024-02-21T01:00:58;5.85;;;2.80;;
11303;SDS011;5707;49.588;12.148;2024-02-21T01:03:23;6.38;;;2.05;;
11303;SDS011;5707;49.588;12.148;2024-02-21T01:05:49;7.00;;;2.85;;
11303;SDS011;5707;49.588;12.148;2024-02-21T01:08:14;5.28;;;2.15;;
11303;SDS011;5707;49.588;12.148;2024-02-21T01:10:40;5.93;;;2.63;;
11303;SDS011;5707;49.588;12.148;2024-02-21T01:13:06;7.75;;;2.80;;
11303;SDS011;5707;49.588;12.148;2024-02-21T01:15:32;4.03;;;2.22;;
11303;SDS011;5707;49.588;12.148;2024-02-21T01:17:58;4.47;;;2.40;;
11303;SDS011;5707;49.588;12.148;2024-02-21T01:20:23;3.58;;;2.20;;
11303;SDS011;5707;49.588;12.148;2024-02-21T01:22:49;3.90;;;2.33;;
11303;SDS011;5707;49.588;12.148;2024-02-21T01:25:14;5.15;;;2.08;;
11303;SDS011;5707;49.588;12.148;2024-02-21T01:27:40;4.18;;;2.38;;
11303;SDS011;5707;49.588;12.148;2024-02-21T01:30:06;5.05;;;2.15;;
11303;SDS011;5707;49.588;12.148;2024-02-21T01:32:32;5.05;;;2.53;;
11303;SDS011;5707;49.588;12.148;2024-02-21T01:34:58;4.45;;;2.53;;
11303;SDS011;5707;49.588;12.148;2024-02-21T01:37:24;7.93;;;2.65;;
11303;SDS011;5707;49.588;12.148;2024-02-21T01:39:50;5.57;;;2.55;;
11303;SDS011;5707;49.588;12.148;2024-02-21T01:42:15;6.30;;;2.47;;
11303;SDS011;5707;49.588;12.148;2024-02-21T01:44:41;6.43;;;2.85;;
11303;SDS011;5707;49.588;12.148;2024-02-21T01:47:07;4.88;;;2.70;;
11303;SDS011;5707;49.588;12.148;2024-02-21T01:49:33;5.70;;;2.28;;
11303;SDS011;5707;49.588;12.148;2024-02-21T01:51:59;6.55;;;2.53;;
11303;SDS011;5707;49.588;12.148;2024-02-21T01:54:25;4.88;;;2.38;;
11303;SDS011;5707;49.588;12.148;2024-02-21T01:56:53;8.00;;;3.05;;
11303;SDS011;5707;49.588;12.148;2024-02-21T01:59:19;8.55;;;3.15;;
11303;SDS011;5707;49.588;12.148;2024-02-21T02:01:47;3.95;;;2.40;;
11303;SDS011;5707;49.588;12.148;2024-02-21T02:04:13;6.30;;;2.53;;
11303;SDS011;5707;49.588;12.148;2024-02-21T02:06:39;6.30;;;2.58;;
11303;SDS011;5707;49.588;12.148;2024-02-21T02:09:06;4.38;;;2.38;;
11303;SDS011;5707;49.588;12.148;2024-02-21T02:11:31;7.22;;;2.95;;
11303;SDS011;5707;49.588;12.148;2024-02-21T02:13:57;5.18;;;2.63;;
11303;SDS011;5707;49.588;12.148;2024-02-21T02:16:23;10.20;;;2.88;;
11303;SDS011;5707;49.588;12.148;2024-02-21T02:18:48;7.18;;;2.83;;
11303;SDS011;5707;49.588;12.148;2024-02-21T02:21:19;5.53;;;2.70;;
11303;SDS011;5707;49.588;12.148;2024-02-21T02:23:49;6.97;;;2.42;;
11303;SDS011;5707;49.588;12.148;2024-02-21T02:26:15;3.33;;;2.05;;
11303;SDS011;5707;49.588;12.148;2024-02-21T02:28:41;7.95;;;2.75;;
11303;SDS011;5707;49.588;12.148;2024-02-21T02:31:06;6.53;;;2.60;;
11303;SDS011;5707;49.588;12.148;2024-02-21T02:33:32;6.43;;;2.53;;
11303;SDS011;5707;49.588;12.148;2024-02-21T02:35:57;5.57;;;2.42;;
11303;SDS011;5707;49.588;12.148;2024-02-21T02:38:23;10.35;;;3.22;;
11303;SDS011;5707;49.588;12.148;2024-02-21T02:40:49;7.20;;;2.63;;
11303;SDS011;5707;49.588;12.148;2024-02-21T02:43:14;5.53;;;2.20;;
11303;SDS011;5707;49.588;12.148;2024-02-21T02:45:40;10.10;;;2.70;;
11303;SDS011;5707;49.588;12.148;2024-02-21T02:48:06;5.93;;;2.65;;
11303;SDS011;5707;49.588;12.148;2024-02-21T02:50:32;3.90;;;2.75;;
11303;SDS011;5707;49.588;12.148;2024-02-21T02:52:57;5.38;;;2.50;;
11303;SDS011;5707;49.588;12.148;2024-02-21T02:55:23;8.63;;;2.95;;
11303;SDS011;5707;49.588;12.148;2024-02-21T02:57:48;6.25;;;2.65;;
11303;SDS011;5707;49.588;12.148;2024-02-21T03:00:14;4.53;;;2.35;;
11303;SDS011;5707;49.588;12.148;2024-02-21T03:02:41;3.55;;;2.47;;
11303;SDS011;5707;49.588;12.148;2024-02-21T03:05:17;5.30;;;3.20;;
11303;SDS011;5707;49.588;12.148;2024-02-21T03:07:44;7.25;;;2.65;;
11303;SDS011;5707;49.588;12.148;2024-02-21T03:10:10;7.35;;;2.63;;
11303;SDS011;5707;49.588;12.148;2024-02-21T03:12:36;9.13;;;2.83;;
11303;SDS011;5707;49.588;12.148;2024-02-21T03:15:02;7.43;;;2.97;;
11303;SDS011;5707;49.588;12.148;2024-02-21T03:17:29;5.93;;;2.75;;
11303;SDS011;5707;49.588;12.148;2024-02-21T03:19:55;7.88;;;2.47;;
11303;SDS011;5707;49.588;12.148;2024-02-21T03:22:22;6.43;;;2.85;;
11303;SDS011;5707;49.588;12.148;2024-02-21T03:24:47;7.30;;;2.25;;
11303;SDS011;5707;49.588;12.148;2024-02-21T03:27:13;5.85;;;2.75;;
11303;SDS011;5707;49.588;12.148;2024-02-21T03:29:39;7.10;;;3.00;;
11303;SDS011;5707;49.588;12.148;2024-02-21T03:32:04;6.47;;;2.80;;
11303;SDS011;5707;49.588;12.148;2024-02-21T03:34:30;7.40;;;2.50;;
11303;SDS011;5707;49.588;12.148;2024-02-21T03:36:56;5.97;;;2.30;;
11303;SDS011;5707;49.588;12.148;2024-02-21T03:39:21;8.88;;;3.63;;
11303;SDS011;5707;49.588;12.148;2024-02-21T03:41:47;5.65;;;2.35;;
11303;SDS011;5707;49.588;12.148;2024-02-21T03:44:13;7.78;;;2.45;;
11303;SDS011;5707;49.588;12.148;2024-02-21T03:46:38;5.32;;;2.65;;
11303;SDS011;5707;49.588;12.148;2024-02-21T03:49:04;4.82;;;2.35;;
11303;SDS011;5707;49.588;12.148;2024-02-21T03:51:29;5.85;;;3.17;;
11303;SDS011;5707;49.588;12.148;2024-02-21T03:53:55;6.53;;;3.03;;
11303;SDS011;5707;49.588;12.148;2024-02-21T03:56:21;5.15;;;2.75;;
11303;SDS011;5707;49.588;12.148;2024-02-21T03:58:46;3.53;;;2.40;;
11303;SDS011;5707;49.588;12.148;2024-02-21T04:01:12;5.82;;;2.65;;
11303;SDS011;5707;49.588;12.148;2024-02-21T04:03:40;4.18;;;2.35;;
11303;SDS011;5707;49.588;12.148;2024-02-21T04:06:05;7.03;;;3.00;;
11303;SDS011;5707;49.588;12.148;2024-02-21T04:08:31;5.60;;;2.95;;
11303;SDS011;5707;49.588;12.148;2024-02-21T04:10:57;5.25;;;2.97;;
11303;SDS011;5707;49.588;12.148;2024-02-21T04:13:22;4.60;;;2.55;;
11303;SDS011;5707;49.588;12.148;2024-02-21T04:15:48;8.93;;;3.20;;
11303;SDS011;5707;49.588;12.148;2024-02-21T04:18:13;9.60;;;2.92;;
11303;SDS011;5707;49.588;12.148;2024-02-21T04:20:40;7.03;;;3.30;;
11303;SDS011;5707;49.588;12.148;2024-02-21T04:23:05;6.53;;;3.05;;
11303;SDS011;5707;49.588;12.148;2024-02-21T04:25:31;5.68;;;3.28;;
11303;SDS011;5707;49.588;12.148;2024-02-21T04:27:56;6.20;;;3.95;;
11303;SDS011;5707;49.588;12.148;2024-02-21T04:30:22;7.55;;;3.72;;
11303;SDS011;5707;49.588;12.148;2024-02-21T04:32:47;6.85;;;3.53;;
11303;SDS011;5707;49.588;12.148;2024-02-21T04:35:13;5.03;;;3.13;;
11303;SDS011;5707;49.588;12.148;2024-02-21T04:37:38;7.93;;;3.28;;
11303;SDS011;5707;49.588;12.148;2024-02-21T04:40:04;4.90;;;3.00;;
11303;SDS011;5707;49.588;12.148;2024-02-21T04:42:30;6.32;;;3.08;;
11303;SDS011;5707;49.588;12.148;2024-02-21T04:44:56;5.93;;;3.27;;
11303;SDS011;5707;49.588;12.148;2024-02-21T04:47:21;5.18;;;2.40;;
11303;SDS011;5707;49.588;12.148;2024-02-21T04:49:48;6.40;;;3.35;;
11303;SDS011;5707;49.588;12.148;2024-02-21T04:52:14;6.20;;;3.60;;
11303;SDS011;5707;49.588;12.148;2024-02-21T04:54:39;3.80;;;2.88;;
11303;SDS011;5707;49.588;12.148;2024-02-21T04:57:05;6.30;;;3.00;;
11303;SDS011;5707;49.588;12.148;2024-02-21T04:59:31;7.00;;;3.53;;
11303;SDS011;5707;49.588;12.148;2024-02-21T05:01:57;4.75;;;2.83;;
11303;SDS011;5707;49.588;12.148;2024-02-21T05:04:23;5.80;;;3.00;;
11303;SDS011;5707;49.588;12.148;2024-02-21T05:06:49;6.97;;;4.03;;
11303;SDS011;5707;49.588;12.148;2024-02-21T05:09:15;5.88;;;4.13;;
11303;SDS011;5707;49.588;12.148;2024-02-21T05:11:40;8.43;;;4.15;;
11303;SDS011;5707;49.588;12.148;2024-02-21T05:14:06;9.30;;;6.47;;
11303;SDS011;5707;49.588;12.148;2024-02-21T05:16:32;10.80;;;4.38;;
11303;SDS011;5707;49.588;12.148;2024-02-21T05:18:57;6.63;;;3.63;;
11303;SDS011;5707;49.588;12.148;2024-02-21T05:21:23;5.22;;;3.30;;
11303;SDS011;5707;49.588;12.148;2024-02-21T05:23:50;4.70;;;3.20;;
11303;SDS011;5707;49.588;12.148;2024-02-21T05:26:22;5.53;;;3.20;;
11303;SDS011;5707;49.588;12.148;2024-02-21T05:28:51;6.97;;;3.45;;
11303;SDS011;5707;49.588;12.148;2024-02-21T05:31:20;5.10;;;2.85;;
11303;SDS011;5707;49.588;12.148;2024-02-21T05:33:46;5.28;;;2.90;;
11303;SDS011;5707;49.588;12.148;2024-02-21T05:36:12;5.22;;;2.58;;
11303;SDS011;5707;49.588;12.148;2024-02-21T05:38:38;5.28;;;3.03;;
11303;SDS011;5707;49.588;12.148;2024-02-21T05:41:04;4.50;;;2.53;;
11303;SDS011;5707;49.588;12.148;2024-02-21T05:43:30;6.40;;;2.83;;
11303;SDS011;5707;49.588;12.148;2024-02-21T05:45:55;6.03;;;3.08;;
11303;SDS011;5707;49.588;12.148;2024-02-21T05:48:22;6.28;;;2.63;;
11303;SDS011;5707;49.588;12.148;2024-02-21T05:50:48;5.05;;;2.83;;
11303;SDS011;5707;49.588;12.148;2024-02-21T05:53:13;5.13;;;2.72;;
11303;SDS011;5707;49.588;12.148;2024-02-21T05:55:39;7.95;;;2.80;;
11303;SDS011;5707;49.588;12.148;2024-02-21T05:58:05;5.57;;;2.72;;
11303;SDS011;5707;49.588;12.148;2024-02-21T06:00:34;6.80;;;3.17;;
11303;SDS011;5707;49.588;12.148;2024-02-21T06:03:00;5.18;;;2.78;;
11303;SDS011;5707;49.588;12.148;2024-02-21T06:05:27;4.75;;;2.97;;
11303;SDS011;5707;49.588;12.148;2024-02-21T06:07:53;7.35;;;3.10;;
11303;SDS011;5707;49.588;12.148;2024-02-21T06:10:18;4.90;;;3.03;;
11303;SDS011;5707;49.588;12.148;2024-02-21T06:12:44;6.57;;;3.10;;
11303;SDS011;5707;49.588;12.148;2024-02-21T06:15:09;6.78;;;3.47;;
11303;SDS011;5707;49.588;12.148;2024-02-21T06:17:35;7.68;;;3.25;;
11303;SDS011;5707;49.588;12.148;2024-02-21T06:20:00;7.20;;;3.30;;
11303;SDS011;5707;49.588;12.148;2024-02-21T06:22:26;7.40;;;3.03;;
11303;SDS011;5707;49.588;12.148;2024-02-21T06:24:51;4.95;;;2.80;;
11303;SDS011;5707;49.588;12.148;2024-02-21T06:27:19;10.57;;;8.48;;
11303;SDS011;5707;49.588;12.148;2024-02-21T06:29:44;7.03;;;3.95;;
11303;SDS011;5707;49.588;12.148;2024-02-21T06:32:10;7.05;;;3.78;;
11303;SDS011;5707;49.588;12.148;2024-02-21T06:34:36;6.85;;;2.95;;
11303;SDS011;5707;49.588;12.148;2024-02-21T06:37:01;10.13;;;3.63;;
11303;SDS011;5707;49.588;12.148;2024-02-21T06:39:27;4.10;;;3.03;;
11303;SDS011;5707;49.588;12.148;2024-02-21T06:41:54;5.28;;;3.08;;
11303;SDS011;5707;49.588;12.148;2024-02-21T06:44:20;5.10;;;3.03;;
11303;SDS011;5707;49.588;12.148;2024-02-21T06:46:46;5.43;;;2.90;;
11303;SDS011;5707;49.588;12.148;2024-02-21T06:49:12;3.42;;;2.78;;
11303;SDS011;5707;49.588;12.148;2024-02-21T06:51:43;6.90;;;3.28;;
11303;SDS011;5707;49.588;12.148;2024-02-21T06:54:09;11.35;;;3.30;;
11303;SDS011;5707;49.588;12.148;2024-02-21T06:56:35;5.53;;;3.15;;
11303;SDS011;5707;49.588;12.148;2024-02-21T06:59:02;5.93;;;3.40;;
11303;SDS011;5707;49.588;12.148;2024-02-21T07:01:31;5.70;;;3.33;;
11303;SDS011;5707;49.588;12.148;2024-02-21T07:03:56;6.60;;;2.80;;
11303;SDS011;5707;49.588;12.148;2024-02-21T07:06:22;5.28;;;3.28;;
11303;SDS011;5707;49.588;12.148;2024-02-21T07:08:48;7.63;;;3.65;;
11303;SDS011;5707;49.588;12.148;2024-02-21T07:11:13;7.32;;;3.05;;
11303;SDS011;5707;49.588;12.148;2024-02-21T07:13:39;7.75;;;2.65;;
11303;SDS011;5707;49.588;12.148;2024-02-21T07:16:05;5.13;;;2.95;;
11303;SDS011;5707;49.588;12.148;2024-02-21T07:18:32;4.18;;;2.75;;
11303;SDS011;5707;49.588;12.148;2024-02-21T07:20:57;7.80;;;3.22;;
11303;SDS011;5707;49.588;12.148;2024-02-21T07:23:23;4.72;;;2.65;;
11303;SDS011;5707;49.588;12.148;2024-02-21T07:25:49;5.30;;;2.55;;
11303;SDS011;5707;49.588;12.148;2024-02-21T07:28:15;5.47;;;3.00;;
11303;SDS011;5707;49.588;12.148;2024-02-21T07:30:41;4.63;;;2.95;;
11303;SDS011;5707;49.588;12.148;2024-02-21T07:33:07;6.07;;;3.00;;
11303;SDS011;5707;49.588;12.148;2024-02-21T07:35:32;3.33;;;2.72;;
11303;SDS011;5707;49.588;12.148;2024-02-21T07:37:58;6.25;;;2.97;;
11303;SDS011;5707;49.588;12.148;2024-02-21T07:40:23;8.73;;;3.30;;
11303;SDS011;5707;49.588;12.148;2024-02-21T07:42:49;5.22;;;3.08;;
11303;SDS011;5707;49.588;12.148;2024-02-21T07:45:14;4.07;;;2.65;;
11303;SDS011;5707;49.588;12.148;2024-02-21T07:47:40;4.10;;;2.40;;
11303;SDS011;5707;49.588;12.148;2024-02-21T07:50:06;3.53;;;2.60;;
11303;SDS011;5707;49.588;12.148;2024-02-21T07:52:32;5.68;;;2.42;;
11303;SDS011;5707;49.588;12.148;2024-02-21T07:54:58;7.05;;;3.45;;
11303;SDS011;5707;49.588;12.148;2024-02-21T07:57:23;5.63;;;2.22;;
11303;SDS011;5707;49.588;12.148;2024-02-21T07:59:49;5.43;;;2.75;;
11303;SDS011;5707;49.588;12.148;2024-02-21T08:02:14;6.35;;;2.65;;
11303;SDS011;5707;49.588;12.148;2024-02-21T08:04:40;4.47;;;3.13;;
11303;SDS011;5707;49.588;12.148;2024-02-21T08:07:06;4.43;;;2.53;;
11303;SDS011;5707;49.588;12.148;2024-02-21T08:09:32;4.97;;;2.25;;
11303;SDS011;5707;49.588;12.148;2024-02-21T08:11:58;4.35;;;2.22;;
11303;SDS011;5707;49.588;12.148;2024-02-21T08:14:24;4.57;;;2.30;;
11303;SDS011;5707;49.588;12.148;2024-02-21T08:16:52;3.78;;;2.22;;
11303;SDS011;5707;49.588;12.148;2024-02-21T08:19:19;6.07;;;2.50;;
11303;SDS011;5707;49.588;12.148;2024-02-21T08:21:45;4.28;;;2.63;;
11303;SDS011;5707;49.588;12.148;2024-02-21T08:24:13;7.43;;;2.70;;
11303;SDS011;5707;49.588;12.148;2024-02-21T08:26:43;7.45;;;3.05;;
11303;SDS011;5707;49.588;12.148;2024-02-21T08:29:12;6.10;;;2.35;;
11303;SDS011;5707;49.588;12.148;2024-02-21T08:31:37;6.72;;;2.17;;
11303;SDS011;5707;49.588;12.148;2024-02-21T08:34:03;8.75;;;2.17;;
11303;SDS011;5707;49.588;12.148;2024-02-21T08:36:35;4.57;;;2.40;;
11303;SDS011;5707;49.588;12.148;2024-02-21T08:39:02;3.78;;;2.67;;
11303;SDS011;5707;49.588;12.148;2024-02-21T08:41:32;3.80;;;2.50;;
11303;SDS011;5707;49.588;12.148;2024-02-21T08:43:59;3.17;;;2.10;;
11303;SDS011;5707;49.588;12.148;2024-02-21T08:46:24;4.55;;;2.17;;
11303;SDS011;5707;49.588;12.148;2024-02-21T08:48:50;8.15;;;2.65;;
11303;SDS011;5707;49.588;12.148;2024-02-21T08:51:16;6.30;;;3.13;;
11303;SDS011;5707;49.588;12.148;2024-02-21T08:53:43;5.20;;;2.55;;
11303;SDS011;5707;49.588;12.148;2024-02-21T08:56:09;6.97;;;2.78;;
11303;SDS011;5707;49.588;12.148;2024-02-21T08:58:39;5.47;;;2.42;;
11303;SDS011;5707;49.588;12.148;2024-02-21T09:01:05;7.18;;;2.60;;
11303;SDS011;5707;49.588;12.148;2024-02-21T09:03:40;4.93;;;2.10;;
11303;SDS011;5707;49.588;12.148;2024-02-21T09:06:06;4.30;;;2.33;;
11303;SDS011;5707;49.588;12.148;2024-02-21T09:08:32;5.28;;;2.30;;
11303;SDS011;5707;49.588;12.148;2024-02-21T09:10:59;5.38;;;2.20;;
11303;SDS011;5707;49.588;12.148;2024-02-21T09:13:25;4.70;;;2.85;;
11303;SDS011;5707;49.588;12.148;2024-02-21T09:15:50;4.22;;;2.47;;
11303;SDS011;5707;49.588;12.148;2024-02-21T09:18:16;4.32;;;2.50;;
11303;SDS011;5707;49.588;12.148;2024-02-21T09:20:44;7.00;;;2.42;;
11303;SDS011;5707;49.588;12.148;2024-02-21T09:23:10;5.30;;;2.20;;
11303;SDS011;5707;49.588;12.148;2024-02-21T09:25:36;7.07;;;4.97;;
11303;SDS011;5707;49.588;12.148;2024-02-21T09:28:02;5.63;;;2.50;;
11303;SDS011;5707;49.588;12.148;2024-02-21T09:30:28;4.22;;;1.92;;
11303;SDS011;5707;49.588;12.148;2024-02-21T09:32:54;4.20;;;2.47;;
11303;SDS011;5707;49.588;12.148;2024-02-21T09:35:19;5.15;;;1.85;;
11303;SDS011;5707;49.588;12.148;2024-02-21T09:37:48;7.43;;;1.98;;
11303;SDS011;5707;49.588;12.148;2024-02-21T09:40:14;5.05;;;2.20;;
11303;SDS011;5707;49.588;12.148;2024-02-21T09:42:42;5.50;;;2.63;;
11303;SDS011;5707;49.588;12.148;2024-02-21T09:45:08;5.28;;;2.00;;
11303;SDS011;5707;49.588;12.148;2024-02-21T09:48:04;4.03;;;2.00;;
11303;SDS011;5707;49.588;12.148;2024-02-21T09:50:50;3.53;;;2.20;;
11303;SDS011;5707;49.588;12.148;2024-02-21T09:53:18;4.30;;;1.73;;
11303;SDS011;5707;49.588;12.148;2024-02-21T09:55:44;6.28;;;2.40;;
11303;SDS011;5707;49.588;12.148;2024-02-21T09:58:11;6.53;;;2.25;;
11303;SDS011;5707;49.588;12.148;2024-02-21T10:00:37;5.97;;;2.33;;
11303;SDS011;5707;49.588;12.148;2024-02-21T10:03:03;7.80;;;2.80;;
11303;SDS011;5707;49.588;12.148;2024-02-21T10:05:34;5.78;;;2.00;;
11303;SDS011;5707;49.588;12.148;2024-02-21T10:08:00;6.28;;;2.03;;
11303;SDS011;5707;49.588;12.148;2024-02-21T10:10:27;6.28;;;2.47;;
11303;SDS011;5707;49.588;12.148;2024-02-21T10:12:54;3.00;;;1.65;;
11303;SDS011;5707;49.588;12.148;2024-02-21T10:15:21;3.08;;;1.42;;
11303;SDS011;5707;49.588;12.148;2024-02-21T10:17:58;3.58;;;1.48;;
11303;SDS011;5707;49.588;12.148;2024-02-21T10:20:25;4.05;;;1.90;;
11303;SDS011;5707;49.588;12.148;2024-02-21T10:23:00;4.18;;;1.77;;
11303;SDS011;5707;49.588;12.148;2024-02-21T10:25:33;5.88;;;1.52;;
11303;SDS011;5707;49.588;12.148;2024-02-21T10:28:12;4.93;;;1.73;;
11303;SDS011;5707;49.588;12.148;2024-02-21T10:30:37;3.67;;;1.70;;
11303;SDS011;5707;49.588;12.148;2024-02-21T10:33:03;3.67;;;1.42;;
11303;SDS011;5707;49.588;12.148;2024-02-21T10:35:33;5.15;;;2.13;;
11303;SDS011;5707;49.588;12.148;2024-02-21T10:37:59;3.08;;;1.70;;
11303;SDS011;5707;49.588;12.148;2024-02-21T10:40:26;3.22;;;1.50;;
11303;SDS011;5707;49.588;12.148;2024-02-21T10:42:56;3.72;;;1.50;;
11303;SDS011;5707;49.588;12.148;2024-02-21T10:45:32;2.88;;;1.48;;
11303;SDS011;5707;49.588;12.148;2024-02-21T10:48:01;5.78;;;1.33;;
11303;SDS011;5707;49.588;12.148;2024-02-21T10:50:56;4.43;;;1.23;;
11303;SDS011;5707;49.588;12.148;2024-02-21T10:56:32;4.18;;;1.55;;
11303;SDS011;5707;49.588;12.148;2024-02-21T10:59:01;4.60;;;1.45;;
11303;SDS011;5707;49.588;12.148;2024-02-21T11:01:31;5.88;;;2.00;;
11303;SDS011;5707;49.588;12.148;2024-02-21T11:04:01;3.10;;;1.50;;
11303;SDS011;5707;49.588;12.148;2024-02-21T11:06:27;4.25;;;1.20;;
11303;SDS011;5707;49.588;12.148;2024-02-21T11:11:33;4.93;;;1.60;;
11303;SDS011;5707;49.588;12.148;2024-02-21T11:16:44;4.10;;;1.48;;
11303;SDS011;5707;49.588;12.148;2024-02-21T11:19:23;2.42;;;1.30;;
11303;SDS011;5707;49.588;12.148;2024-02-21T11:21:50;3.08;;;1.38;;
11303;SDS011;5707;49.588;12.148;2024-02-21T11:24:30;1.92;;;1.10;;
11303;SDS011;5707;49.588;12.148;2024-02-21T11:27:15;4.10;;;1.25;;
11303;SDS011;5707;49.588;12.148;2024-02-21T11:29:48;1.70;;;1.30;;
11303;SDS011;5707;49.588;12.148;2024-02-21T11:32:16;4.18;;;1.30;;
11303;SDS011;5707;49.588;12.148;2024-02-21T11:37:20;4.28;;;2.30;;
11303;SDS011;5707;49.588;12.148;2024-02-21T11:39:46;5.72;;;1.52;;
11303;SDS011;5707;49.588;12.148;2024-02-21T11:42:11;1.10;;;0.75;;
11303;SDS011;5707;49.588;12.148;2024-02-21T11:44:38;2.15;;;0.95;;
11303;SDS011;5707;49.588;12.148;2024-02-21T11:47:05;2.72;;;0.90;;
11303;SDS011;5707;49.588;12.148;2024-02-21T11:49:43;3.22;;;1.20;;
11303;SDS011;5707;49.588;12.148;2024-02-21T11:52:11;3.80;;;1.35;;
11303;SDS011;5707;49.588;12.148;2024-02-21T11:54:37;2.45;;;1.20;;
11303;SDS011;5707;49.588;12.148;2024-02-21T11:57:02;2.90;;;1.02;;
11303;SDS011;5707;49.588;12.148;2024-02-21T11:59:31;3.40;;;1.15;;
11303;SDS011;5707;49.588;12.148;2024-02-21T12:01:58;4.10;;;1.13;;
11303;SDS011;5707;49.588;12.148;2024-02-21T12:04:24;0.95;;;0.77;;
11303;SDS011;5707;49.588;12.148;2024-02-21T12:06:49;5.63;;;2.95;;
11303;SDS011;5707;49.588;12.148;2024-02-21T12:09:17;2.17;;;1.42;;
11303;SDS011;5707;49.588;12.148;2024-02-21T12:11:43;5.25;;;2.92;;
11303;SDS011;5707;49.588;12.148;2024-02-21T12:14:09;1.83;;;1.00;;
11303;SDS011;5707;49.588;12.148;2024-02-21T12:16:35;4.35;;;1.58;;
11303;SDS011;5707;49.588;12.148;2024-02-21T12:19:04;2.72;;;1.30;;
11303;SDS011;5707;49.588;12.148;2024-02-21T12:21:30;2.97;;;1.33;;
11303;SDS011;5707;49.588;12.148;2024-02-21T12:23:57;2.83;;;1.73;;
11303;SDS011;5707;49.588;12.148;2024-02-21T12:26:36;4.00;;;1.30;;
11303;SDS011;5707;49.588;12.148;2024-02-21T12:29:02;5.45;;;1.80;;
11303;SDS011;5707;49.588;12.148;2024-02-21T12:31:27;2.97;;;1.30;;
11303;SDS011;5707;49.588;12.148;2024-02-21T12:33:53;2.63;;;1.23;;
11303;SDS011;5707;49.588;12.148;2024-02-21T12:36:19;3.35;;;1.65;;
11303;SDS011;5707;49.588;12.148;2024-02-21T12:38:44;6.28;;;2.85;;
11303;SDS011;5707;49.588;12.148;2024-02-21T12:41:11;3.55;;;2.53;;
11303;SDS011;5707;49.588;12.148;2024-02-21T12:43:37;7.30;;;3.95;;
11303;SDS011;5707;49.588;12.148;2024-02-21T12:46:03;2.00;;;1.45;;
11303;SDS011;5707;49.588;12.148;2024-02-21T12:48:29;6.18;;;3.30;;
11303;SDS011;5707;49.588;12.148;2024-02-21T12:50:54;4.78;;;2.70;;
11303;SDS011;5707;49.588;12.148;2024-02-21T12:53:20;5.82;;;3.50;;
11303;SDS011;5707;49.588;12.148;2024-02-21T12:55:47;3.22;;;1.95;;
11303;SDS011;5707;49.588;12.148;2024-02-21T12:58:13;1.42;;;0.82;;
11303;SDS011;5707;49.588;12.148;2024-02-21T13:00:39;2.08;;;0.98;;
11303;SDS011;5707;49.588;12.148;2024-02-21T13:03:05;2.28;;;1.00;;
11303;SDS011;5707;49.588;12.148;2024-02-21T13:05:31;3.22;;;1.38;;
11303;SDS011;5707;49.588;12.148;2024-02-21T13:07:57;4.10;;;0.93;;
11303;SDS011;5707;49.588;12.148;2024-02-21T13:10:25;1.92;;;0.90;;
11303;SDS011;5707;49.588;12.148;2024-02-21T13:12:51;3.03;;;1.77;;
11303;SDS011;5707;49.588;12.148;2024-02-21T13:15:17;2.15;;;1.35;;
11303;SDS011;5707;49.588;12.148;2024-02-21T13:17:46;3.50;;;1.90;;
11303;SDS011;5707;49.588;12.148;2024-02-21T13:20:11;1.60;;;0.85;;
11303;SDS011;5707;49.588;12.148;2024-02-21T13:22:38;1.10;;;0.65;;
11303;SDS011;5707;49.588;12.148;2024-02-21T13:25:04;3.05;;;1.80;;
11303;SDS011;5707;49.588;12.148;2024-02-21T13:27:32;2.17;;;1.20;;
11303;SDS011;5707;49.588;12.148;2024-02-21T13:29:58;5.47;;;2.92;;
11303;SDS011;5707;49.588;12.148;2024-02-21T13:32:25;2.53;;;1.55;;
11303;SDS011;5707;49.588;12.148;2024-02-21T13:34:50;2.65;;;1.10;;
11303;SDS011;5707;49.588;12.148;2024-02-21T13:37:17;3.65;;;2.05;;
11303;SDS011;5707;49.588;12.148;2024-02-21T13:39:43;2.70;;;1.10;;
11303;SDS011;5707;49.588;12.148;2024-02-21T13:42:08;0.98;;;0.85;;
11303;SDS011;5707;49.588;12.148;2024-02-21T13:44:34;1.58;;;0.90;;
11303;SDS011;5707;49.588;12.148;2024-02-21T13:46:59;1.60;;;1.05;;
11303;SDS011;5707;49.588;12.148;2024-02-21T13:49:25;1.67;;;0.90;;
11303;SDS011;5707;49.588;12.148;2024-02-21T13:51:51;1.98;;;1.08;;
11303;SDS011;5707;49.588;12.148;2024-02-21T13:54:17;2.60;;;1.13;;
11303;SDS011;5707;49.588;12.148;2024-02-21T13:56:44;1.48;;;0.85;;
11303;SDS011;5707;49.588;12.148;2024-02-21T13:59:11;2.03;;;1.30;;
11303;SDS011;5707;49.588;12.148;2024-02-21T14:01:38;3.88;;;2.17;;
11303;SDS011;5707;49.588;12.148;2024-02-21T14:04:04;1.58;;;1.00;;
11303;SDS011;5707;49.588;12.148;2024-02-21T14:06:29;2.00;;;0.90;;
11303;SDS011;5707;49.588;12.148;2024-02-21T14:08:55;2.38;;;0.60;;
11303;SDS011;5707;49.588;12.148;2024-02-21T14:11:21;1.55;;;1.00;;
11303;SDS011;5707;49.588;12.148;2024-02-21T14:13:46;1.20;;;0.85;;
11303;SDS011;5707;49.588;12.148;2024-02-21T14:16:12;2.58;;;1.00;;
11303;SDS011;5707;49.588;12.148;2024-02-21T14:18:40;2.78;;;0.98;;
11303;SDS011;5707;49.588;12.148;2024-02-21T14:21:07;1.98;;;0.80;;
11303;SDS011;5707;49.588;12.148;2024-02-21T14:23:35;1.05;;;0.75;;
11303;SDS011;5707;49.588;12.148;2024-02-21T14:26:04;2.53;;;0.75;;
11303;SDS011;5707;49.588;12.148;2024-02-21T14:28:31;2.08;;;1.05;;
11303;SDS011;5707;49.588;12.148;2024-02-21T14:30:58;3.10;;;0.82;;
11303;SDS011;5707;49.588;12.148;2024-02-21T14:33:25;1.05;;;0.60;;
11303;SDS011;5707;49.588;12.148;2024-02-21T14:35:51;1.50;;;0.70;;
11303;SDS011;5707;49.588;12.148;2024-02-21T14:38:17;2.53;;;1.10;;
11303;SDS011;5707;49.588;12.148;2024-02-21T14:40:44;3.60;;;1.13;;
11303;SDS011;5707;49.588;12.148;2024-02-21T14:43:10;2.13;;;1.10;;
11303;SDS011;5707;49.588;12.148;2024-02-21T14:45:36;1.95;;;0.98;;
11303;SDS011;5707;49.588;12.148;2024-02-21T14:48:03;1.30;;;0.82;;
11303;SDS011;5707;49.588;12.148;2024-02-21T14:50:29;1.33;;;0.85;;
11303;SDS011;5707;49.588;12.148;2024-02-21T14:52:54;1.90;;;0.82;;
11303;SDS011;5707;49.588;12.148;2024-02-21T14:55:20;1.00;;;0.70;;